createdAt,value
2023-02-26T00:00:21.356Z,2.17
2023-02-26T00:02:49.276Z,2.25
2023-02-26T00:05:17.471Z,2.19
2023-02-26T00:07:45.005Z,2.23
2023-02-26T00:10:14.017Z,2.27
2023-02-26T00:12:41.693Z,2.54
2023-02-26T00:15:13.110Z,2.56
2023-02-26T00:17:46.462Z,2.58
2023-02-26T00:20:14.278Z,2.66
2023-02-26T00:22:41.919Z,2.65
2023-02-26T00:25:09.688Z,2.65
2023-02-26T00:27:37.612Z,2.57
2023-02-26T00:30:08.954Z,2.39
2023-02-26T00:32:36.641Z,2.38
2023-02-26T00:35:04.206Z,2.36
2023-02-26T00:37:46.959Z,2.33
2023-02-26T00:40:32.951Z,2.37
2023-02-26T00:43:00.560Z,2.38
2023-02-26T00:45:28.596Z,2.40
2023-02-26T00:48:11.451Z,2.31
2023-02-26T00:50:45.468Z,2.30
2023-02-26T00:53:12.960Z,2.30
2023-02-26T00:55:40.420Z,2.29
2023-02-26T00:58:07.904Z,2.36
2023-02-26T01:00:35.305Z,2.43
2023-02-26T01:03:03.666Z,2.39
2023-02-26T01:05:31.425Z,2.32
2023-02-26T01:07:58.828Z,2.32
2023-02-26T01:10:26.423Z,2.24
2023-02-26T01:12:54.196Z,2.18
2023-02-26T01:15:21.793Z,2.28
2023-02-26T01:17:53.058Z,2.14
2023-02-26T01:20:21.968Z,2.16
2023-02-26T01:22:53.460Z,2.11
2023-02-26T01:25:38.126Z,2.15
2023-02-26T01:28:05.675Z,2.14
2023-02-26T01:30:33.234Z,2.19
2023-02-26T01:33:09.611Z,2.19
2023-02-26T01:35:39.803Z,2.22
2023-02-26T01:38:13.013Z,2.24
2023-02-26T01:40:49.259Z,2.02
2023-02-26T01:43:20.840Z,1.88
2023-02-26T01:45:58.634Z,1.97
2023-02-26T01:48:34.805Z,1.99
2023-02-26T01:51:02.367Z,1.90
2023-02-26T01:53:29.900Z,1.88
2023-02-26T01:55:59.920Z,1.80
2023-02-26T01:58:28.722Z,1.80
2023-02-26T02:00:56.198Z,1.77
2023-02-26T02:03:25.501Z,1.66
2023-02-26T02:06:05.146Z,1.65
2023-02-26T02:08:35.678Z,1.57
2023-02-26T02:11:04.555Z,1.59
2023-02-26T02:13:37.759Z,1.56
2023-02-26T02:16:24.156Z,1.56
2023-02-26T02:19:03.140Z,1.46
2023-02-26T02:21:48.781Z,1.49
2023-02-26T02:24:16.255Z,1.48
2023-02-26T02:26:51.433Z,1.41
2023-02-26T02:29:27.887Z,1.38
2023-02-26T02:32:07.679Z,1.47
2023-02-26T02:34:46.577Z,1.52
2023-02-26T02:37:29.365Z,1.44
2023-02-26T02:40:00.352Z,1.32
2023-02-26T02:42:33.044Z,1.34
2023-02-26T02:45:09.354Z,1.39
2023-02-26T02:47:38.341Z,1.39
2023-02-26T02:50:13.139Z,1.02
2023-02-26T02:52:49.563Z,0.86
2023-02-26T02:55:23.083Z,0.93
2023-02-26T02:57:53.790Z,0.77
2023-02-26T03:00:22.965Z,0.90
2023-02-26T03:02:54.959Z,0.90
2023-02-26T03:05:22.423Z,0.93
2023-02-26T03:08:11.226Z,0.96
2023-02-26T03:10:38.764Z,0.93
2023-02-26T03:13:06.679Z,0.89
2023-02-26T03:15:34.052Z,0.79
2023-02-26T03:18:13.466Z,0.79
2023-02-26T03:20:53.677Z,0.77
2023-02-26T03:23:23.599Z,0.74
2023-02-26T03:26:11.661Z,0.84
2023-02-26T03:28:46.147Z,0.97
2023-02-26T03:31:13.594Z,0.82
2023-02-26T03:34:01.373Z,0.75
2023-02-26T03:36:37.330Z,0.61
2023-02-26T03:39:17.782Z,0.56
2023-02-26T03:41:50.088Z,0.54
2023-02-26T03:44:24.332Z,0.57
2023-02-26T03:46:54.922Z,0.46
2023-02-26T03:49:27.811Z,0.67
2023-02-26T03:51:55.935Z,0.50
2023-02-26T03:54:32.383Z,0.63
2023-02-26T03:57:00.107Z,0.64
2023-02-26T03:59:27.845Z,0.57
2023-02-26T04:01:55.240Z,0.61
2023-02-26T04:04:42.449Z,0.54
2023-02-26T04:07:11.640Z,0.48
2023-02-26T04:09:39.343Z,0.51
2023-02-26T04:12:06.814Z,0.60
2023-02-26T04:14:34.394Z,0.51
2023-02-26T04:17:01.834Z,0.67
2023-02-26T04:19:29.309Z,0.60
2023-02-26T04:21:56.691Z,0.51
2023-02-26T04:24:24.107Z,0.53
2023-02-26T04:26:51.496Z,0.46
2023-02-26T04:29:18.937Z,0.42
2023-02-26T04:31:46.520Z,0.40
2023-02-26T04:34:14.408Z,0.37
2023-02-26T04:36:41.780Z,0.40
2023-02-26T04:39:10.655Z,0.37
2023-02-26T04:41:38.814Z,0.41
2023-02-26T04:44:06.437Z,0.41
2023-02-26T04:46:34.214Z,0.25
2023-02-26T04:49:01.654Z,0.31
2023-02-26T04:51:29.050Z,0.28
2023-02-26T04:53:56.423Z,0.47
2023-02-26T04:56:24.218Z,0.44
2023-02-26T04:58:51.856Z,0.52
2023-02-26T05:01:19.452Z,0.44
2023-02-26T05:03:46.946Z,0.45
2023-02-26T05:06:14.368Z,0.48
2023-02-26T05:08:43.120Z,0.52
2023-02-26T05:11:11.572Z,0.47
2023-02-26T05:13:39.533Z,0.44
2023-02-26T05:16:07.526Z,0.58
2023-02-26T05:18:35.068Z,0.40
2023-02-26T05:21:02.856Z,0.46
2023-02-26T05:23:30.336Z,0.48
2023-02-26T05:25:58.300Z,0.45
2023-02-26T05:28:26.508Z,0.50
2023-02-26T05:30:54.350Z,0.46
2023-02-26T05:33:21.858Z,0.60
2023-02-26T05:35:49.323Z,0.54
2023-02-26T05:38:17.120Z,0.27
2023-02-26T05:40:44.594Z,0.31
2023-02-26T05:43:12.098Z,0.28
2023-02-26T05:45:41.391Z,0.22
2023-02-26T05:48:11.206Z,0.09
2023-02-26T05:50:38.667Z,0.06
2023-02-26T05:53:06.160Z,0.11
2023-02-26T05:55:33.582Z,-0.05
2023-02-26T05:58:01.088Z,0.03
2023-02-26T06:00:28.705Z,-0.05
2023-02-26T06:02:56.608Z,-0.11
2023-02-26T06:05:24.060Z,-0.03
2023-02-26T06:07:51.470Z,-0.08
2023-02-26T06:10:19.304Z,-0.13
2023-02-26T06:12:46.765Z,-0.18
2023-02-26T06:15:14.262Z,-0.13
2023-02-26T06:17:41.972Z,0.11
2023-02-26T06:20:10.165Z,0.01
2023-02-26T06:22:37.782Z,0.01
2023-02-26T06:25:05.371Z,0.00
2023-02-26T06:27:32.762Z,0.00
2023-02-26T06:30:00.148Z,0.01
2023-02-26T06:32:30.266Z,0.01
2023-02-26T06:34:58.117Z,-0.10
2023-02-26T06:37:25.555Z,-0.08
2023-02-26T06:39:52.968Z,-0.14
2023-02-26T06:42:20.460Z,-0.13
2023-02-26T06:44:47.925Z,-0.18
2023-02-26T06:47:15.484Z,-0.23
2023-02-26T06:49:42.894Z,-0.20
2023-02-26T06:52:10.347Z,-0.14
2023-02-26T06:54:37.772Z,-0.20
2023-02-26T06:57:05.194Z,-0.14
2023-02-26T06:59:32.620Z,-0.10
2023-02-26T07:02:00.140Z,-0.07
2023-02-26T07:04:27.614Z,0.09
2023-02-26T07:06:55.115Z,-0.02
2023-02-26T07:09:22.570Z,0.03
2023-02-26T07:11:50.034Z,0.02
2023-02-26T07:14:17.548Z,0.10
2023-02-26T07:16:45.033Z,0.30
2023-02-26T07:19:12.499Z,0.40
2023-02-26T07:21:39.959Z,0.30
2023-02-26T07:24:07.660Z,0.60
2023-02-26T07:26:35.135Z,0.44
2023-02-26T07:29:02.665Z,0.80
2023-02-26T07:31:30.137Z,0.78
2023-02-26T07:33:57.599Z,0.97
2023-02-26T07:36:25.180Z,0.92
2023-02-26T07:38:52.743Z,1.08
2023-02-26T07:41:20.210Z,1.36
2023-02-26T07:43:47.901Z,1.46
2023-02-26T07:46:15.337Z,1.40
2023-02-26T07:48:42.876Z,1.56
2023-02-26T07:51:11.185Z,1.42
2023-02-26T07:53:38.643Z,1.50
2023-02-26T07:56:06.044Z,1.64
2023-02-26T07:58:33.427Z,1.64
2023-02-26T08:01:00.827Z,1.85
2023-02-26T08:03:28.188Z,2.15
2023-02-26T08:05:55.668Z,2.11
2023-02-26T08:08:23.036Z,2.30
2023-02-26T08:10:50.571Z,2.61
2023-02-26T08:13:18.193Z,2.50
2023-02-26T08:15:45.616Z,2.34
2023-02-26T08:18:13.142Z,2.31
2023-02-26T08:20:40.595Z,2.33
2023-02-26T08:23:08.195Z,2.37
2023-02-26T08:25:35.616Z,2.25
2023-02-26T08:28:03.337Z,2.42
2023-02-26T08:30:30.922Z,2.37
2023-02-26T08:32:58.389Z,2.56
2023-02-26T08:35:26.012Z,2.40
2023-02-26T08:37:54.538Z,2.51
2023-02-26T08:40:22.001Z,2.43
2023-02-26T08:42:49.452Z,2.39
2023-02-26T08:45:16.915Z,2.63
2023-02-26T08:47:56.116Z,2.69
2023-02-26T08:50:24.654Z,2.71
2023-02-26T08:52:52.217Z,2.77
2023-02-26T08:55:19.634Z,2.70
2023-02-26T08:57:47.049Z,2.82
2023-02-26T09:00:16.541Z,2.83
2023-02-26T09:02:43.997Z,2.83
2023-02-26T09:05:12.261Z,2.96
2023-02-26T09:07:40.030Z,3.22
2023-02-26T09:10:07.935Z,3.15
2023-02-26T09:12:36.900Z,3.00
2023-02-26T09:15:05.689Z,3.21
2023-02-26T09:17:33.180Z,3.17
2023-02-26T09:20:00.663Z,3.31
2023-02-26T09:22:28.162Z,3.30
2023-02-26T09:24:55.768Z,3.37
2023-02-26T09:27:23.193Z,3.41
2023-02-26T09:29:50.594Z,3.67
2023-02-26T09:32:18.096Z,3.82
2023-02-26T09:34:45.711Z,3.81
2023-02-26T09:37:13.101Z,3.82
2023-02-26T09:39:40.506Z,4.07
2023-02-26T09:42:26.803Z,4.18
2023-02-26T09:45:00.015Z,3.81
2023-02-26T09:47:41.903Z,4.26
2023-02-26T09:50:35.044Z,4.58
2023-02-26T09:53:09.673Z,4.54
2023-02-26T09:55:43.668Z,4.31
2023-02-26T09:58:30.043Z,4.50
2023-02-26T10:01:12.506Z,4.26
2023-02-26T10:03:51.963Z,4.64
2023-02-26T10:06:38.003Z,5.08
2023-02-26T10:09:20.055Z,5.20
2023-02-26T10:12:19.726Z,6.11
2023-02-26T10:14:55.603Z,5.88
2023-02-26T10:17:25.714Z,5.43
2023-02-26T10:19:57.438Z,5.10
2023-02-26T10:22:24.947Z,5.12
2023-02-26T10:24:55.684Z,4.80
2023-02-26T10:27:46.113Z,5.40
2023-02-26T10:30:32.203Z,5.09
2023-02-26T10:33:05.488Z,4.81
2023-02-26T10:35:37.886Z,5.41
2023-02-26T10:38:07.560Z,5.33
2023-02-26T10:40:41.000Z,5.67
2023-02-26T10:43:20.863Z,5.98
2023-02-26T10:46:08.039Z,5.76
2023-02-26T10:48:44.726Z,5.81
2023-02-26T10:51:20.267Z,5.74
2023-02-26T10:53:50.360Z,5.49
2023-02-26T10:56:17.757Z,5.78
2023-02-26T10:58:45.179Z,6.36
2023-02-26T11:01:20.592Z,6.40
2023-02-26T11:03:49.583Z,5.96
2023-02-26T11:06:22.968Z,6.41
2023-02-26T11:08:53.127Z,6.10
2023-02-26T11:11:56.150Z,6.11
2023-02-26T11:14:26.834Z,6.53
2023-02-26T11:16:57.403Z,6.27
2023-02-26T11:19:28.380Z,6.02
2023-02-26T11:21:57.629Z,5.79
2023-02-26T11:24:48.146Z,5.63
2023-02-26T11:27:17.752Z,5.89
2023-02-26T11:29:48.690Z,5.60
2023-02-26T11:32:20.494Z,5.80
2023-02-26T11:34:49.568Z,5.78
2023-02-26T11:37:36.987Z,6.04
2023-02-26T11:40:14.078Z,6.07
2023-02-26T11:42:45.009Z,5.81
2023-02-26T11:45:15.400Z,5.61
2023-02-26T11:47:42.945Z,5.90
2023-02-26T11:50:28.585Z,5.99
2023-02-26T11:52:57.759Z,6.00
2023-02-26T11:55:33.832Z,6.16
2023-02-26T11:58:01.351Z,5.99
2023-02-26T12:00:33.390Z,6.53
2023-02-26T12:03:05.232Z,6.67
2023-02-26T12:05:32.942Z,6.54
2023-02-26T12:08:00.515Z,6.85
2023-02-26T12:10:38.957Z,6.72
2023-02-26T12:13:17.479Z,7.02
2023-02-26T12:15:53.499Z,6.61
2023-02-26T12:18:23.983Z,7.10
2023-02-26T12:20:51.417Z,7.40
2023-02-26T12:23:37.842Z,7.27
2023-02-26T12:26:08.214Z,7.65
2023-02-26T12:28:54.355Z,6.33
2023-02-26T12:31:21.799Z,6.52
2023-02-26T12:34:07.229Z,7.13
2023-02-26T12:36:49.576Z,7.09
2023-02-26T12:39:32.439Z,7.81
2023-02-26T12:41:59.897Z,8.10
2023-02-26T12:44:40.602Z,8.08
2023-02-26T12:47:07.991Z,8.76
2023-02-26T12:49:38.611Z,7.91
2023-02-26T12:52:12.506Z,7.42
2023-02-26T12:54:59.239Z,7.19
2023-02-26T12:57:41.863Z,6.96
2023-02-26T13:00:12.733Z,7.54
2023-02-26T13:02:52.371Z,7.62
2023-02-26T13:05:36.880Z,7.24
2023-02-26T13:08:13.528Z,7.59
2023-02-26T13:10:56.047Z,7.87
2023-02-26T13:13:32.364Z,8.36
2023-02-26T13:15:59.867Z,8.68
2023-02-26T13:18:44.731Z,7.66
2023-02-26T13:21:21.658Z,7.70
2023-02-26T13:24:02.634Z,7.88
2023-02-26T13:26:30.711Z,8.24
2023-02-26T13:29:13.062Z,7.55
2023-02-26T13:31:44.704Z,8.26
2023-02-26T13:34:16.038Z,8.43
2023-02-26T13:36:43.824Z,8.19
2023-02-26T13:39:22.707Z,8.67
2023-02-26T13:42:02.396Z,8.31
2023-02-26T13:44:29.796Z,7.53
2023-02-26T13:47:17.070Z,8.07
2023-02-26T13:49:45.904Z,8.21
2023-02-26T13:52:24.047Z,8.10
2023-02-26T13:54:51.733Z,8.01
2023-02-26T13:57:26.880Z,8.32
2023-02-26T13:59:55.895Z,8.32
2023-02-26T14:02:36.788Z,7.97
2023-02-26T14:05:08.748Z,8.11
2023-02-26T14:07:48.295Z,8.20
2023-02-26T14:10:16.936Z,8.34
2023-02-26T14:12:44.908Z,7.54
2023-02-26T14:15:29.518Z,6.99
2023-02-26T14:18:05.668Z,6.75
2023-02-26T14:20:35.406Z,7.10
2023-02-26T14:23:09.992Z,7.33
2023-02-26T14:25:37.440Z,7.20
2023-02-26T14:28:20.035Z,6.97
2023-02-26T14:30:52.414Z,7.38
2023-02-26T14:33:20.672Z,6.90
2023-02-26T14:35:50.406Z,7.29
2023-02-26T14:38:32.659Z,7.01
2023-02-26T14:41:10.010Z,7.13
2023-02-26T14:43:41.270Z,6.84
2023-02-26T14:46:09.707Z,6.82
2023-02-26T14:48:40.017Z,6.60
2023-02-26T14:51:26.564Z,6.85
2023-02-26T14:54:17.459Z,6.98
2023-02-26T14:57:03.990Z,6.83
2023-02-26T14:59:34.951Z,6.55
2023-02-26T15:02:11.388Z,6.64
2023-02-26T15:04:51.201Z,6.68
2023-02-26T15:07:24.566Z,6.94
2023-02-26T15:10:10.746Z,6.98
2023-02-26T15:12:53.240Z,6.72
2023-02-26T15:15:28.806Z,7.14
2023-02-26T15:18:14.927Z,7.00
2023-02-26T15:20:51.401Z,6.87
2023-02-26T15:23:29.774Z,6.92
2023-02-26T15:25:58.206Z,6.80
2023-02-26T15:28:28.802Z,6.76
2023-02-26T15:30:57.168Z,6.62
2023-02-26T15:33:25.325Z,6.76
2023-02-26T15:35:53.606Z,6.45
2023-02-26T15:38:21.261Z,6.66
2023-02-26T15:40:50.356Z,6.45
2023-02-26T15:43:21.434Z,6.54
2023-02-26T15:45:50.108Z,6.68
2023-02-26T15:48:44.562Z,6.84
2023-02-26T15:51:14.441Z,6.91
2023-02-26T15:53:42.661Z,6.52
2023-02-26T15:56:12.726Z,6.44
2023-02-26T15:58:45.260Z,6.40
2023-02-26T16:01:17.146Z,6.69
2023-02-26T16:03:44.744Z,6.59
2023-02-26T16:06:13.883Z,6.37
2023-02-26T16:08:41.487Z,6.49
2023-02-26T16:11:09.333Z,6.67
2023-02-26T16:13:38.833Z,6.39
2023-02-26T16:16:13.099Z,6.16
2023-02-26T16:18:41.873Z,6.24
2023-02-26T16:21:10.944Z,6.38
2023-02-26T16:23:45.179Z,6.14
2023-02-26T16:26:22.064Z,5.97
2023-02-26T16:28:58.860Z,6.17
2023-02-26T16:31:27.476Z,5.98
2023-02-26T16:34:02.818Z,5.78
2023-02-26T16:36:41.559Z,5.57
2023-02-26T16:39:09.027Z,5.71
2023-02-26T16:41:38.217Z,5.45
2023-02-26T16:44:25.999Z,5.45
2023-02-26T16:46:53.703Z,5.36
2023-02-26T16:49:24.894Z,5.39
2023-02-26T16:51:53.039Z,5.53
2023-02-26T16:54:20.480Z,5.42
2023-02-26T16:56:49.040Z,5.34
2023-02-26T16:59:17.201Z,5.34
2023-02-26T17:01:52.946Z,5.28
2023-02-26T17:04:22.282Z,5.38
2023-02-26T17:06:50.176Z,5.11
2023-02-26T17:09:37.084Z,5.23
2023-02-26T17:12:12.732Z,5.12
2023-02-26T17:14:44.465Z,5.01
2023-02-26T17:17:11.877Z,4.96
2023-02-26T17:19:39.499Z,4.89
2023-02-26T17:22:10.778Z,4.86
2023-02-26T17:24:40.865Z,4.75
2023-02-26T17:27:09.443Z,4.71
2023-02-26T17:29:41.423Z,4.52
2023-02-26T17:32:20.091Z,4.54
2023-02-26T17:34:53.979Z,4.40
2023-02-26T17:37:21.644Z,4.37
2023-02-26T17:39:50.021Z,4.33
2023-02-26T17:42:21.272Z,4.39
2023-02-26T17:44:48.768Z,4.16
2023-02-26T17:47:17.860Z,4.18
2023-02-26T17:49:45.460Z,4.07
2023-02-26T17:52:12.869Z,4.16
2023-02-26T17:54:40.337Z,4.13
2023-02-26T17:57:08.486Z,4.25
2023-02-26T17:59:35.936Z,4.10
2023-02-26T18:02:03.326Z,4.08
2023-02-26T18:04:30.859Z,4.14
2023-02-26T18:06:58.449Z,3.98
2023-02-26T18:09:25.907Z,4.01
2023-02-26T18:11:53.292Z,3.99
2023-02-26T18:14:20.681Z,4.00
2023-02-26T18:16:48.188Z,3.96
2023-02-26T18:19:16.288Z,3.88
2023-02-26T18:21:43.937Z,3.82
2023-02-26T18:24:11.397Z,3.55
2023-02-26T18:26:38.951Z,3.52
2023-02-26T18:29:06.372Z,3.63
2023-02-26T18:31:35.267Z,3.51
2023-02-26T18:34:03.511Z,3.57
2023-02-26T18:36:37.452Z,3.60
2023-02-26T18:39:06.245Z,3.48
2023-02-26T18:41:34.086Z,3.38
2023-02-26T18:44:02.177Z,3.46
2023-02-26T18:46:29.941Z,3.39
2023-02-26T18:48:57.425Z,3.32
2023-02-26T18:51:25.385Z,3.20
2023-02-26T18:53:52.996Z,3.25
2023-02-26T18:56:20.496Z,3.36
2023-02-26T18:58:47.941Z,3.39
2023-02-26T19:01:15.347Z,3.34
2023-02-26T19:03:42.723Z,3.36
2023-02-26T19:06:10.193Z,3.22
2023-02-26T19:08:37.648Z,3.36
2023-02-26T19:11:05.144Z,3.33
2023-02-26T19:13:32.724Z,3.28
2023-02-26T19:16:00.199Z,3.30
2023-02-26T19:18:27.672Z,3.22
2023-02-26T19:20:55.165Z,3.15
2023-02-26T19:23:22.964Z,3.12
2023-02-26T19:25:52.069Z,3.14
2023-02-26T19:28:19.464Z,3.27
2023-02-26T19:30:46.948Z,3.37
2023-02-26T19:33:16.177Z,3.41
2023-02-26T19:35:43.965Z,3.47
2023-02-26T19:38:11.520Z,3.45
2023-02-26T19:40:39.213Z,3.37
2023-02-26T19:43:06.601Z,3.48
2023-02-26T19:45:34.046Z,3.42
2023-02-26T19:48:01.490Z,3.53
2023-02-26T19:50:28.898Z,3.38
2023-02-26T19:52:58.298Z,3.38
2023-02-26T19:55:25.717Z,3.46
2023-02-26T19:57:53.229Z,3.44
2023-02-26T20:00:20.874Z,3.49
2023-02-26T20:02:48.331Z,3.40
2023-02-26T20:05:18.160Z,3.49
2023-02-26T20:07:46.308Z,3.47
2023-02-26T20:10:15.605Z,3.45
2023-02-26T20:12:43.862Z,3.52
2023-02-26T20:15:11.568Z,3.44
2023-02-26T20:17:39.387Z,3.49
2023-02-26T20:20:07.528Z,3.32
2023-02-26T20:22:34.897Z,3.39
2023-02-26T20:25:02.348Z,3.02
2023-02-26T20:27:29.791Z,3.03
2023-02-26T20:29:57.174Z,2.89
2023-02-26T20:32:25.392Z,2.82
2023-02-26T20:34:52.879Z,2.85
2023-02-26T20:37:20.349Z,2.83
2023-02-26T20:39:47.824Z,2.93
2023-02-26T20:42:16.960Z,2.88
2023-02-26T20:44:44.621Z,2.77
2023-02-26T20:47:12.003Z,2.82
2023-02-26T20:49:39.653Z,2.66
2023-02-26T20:52:07.127Z,2.75
2023-02-26T20:54:34.617Z,2.64
2023-02-26T20:57:02.109Z,2.71
2023-02-26T20:59:29.891Z,2.77
2023-02-26T21:01:57.901Z,2.69
2023-02-26T21:04:25.616Z,2.67
2023-02-26T21:06:53.109Z,2.66
2023-02-26T21:09:20.531Z,2.75
2023-02-26T21:11:48.547Z,2.75
2023-02-26T21:14:16.371Z,2.86
2023-02-26T21:16:44.019Z,2.80
2023-02-26T21:19:11.658Z,3.01
2023-02-26T21:21:39.101Z,2.95
2023-02-26T21:24:06.777Z,3.09
2023-02-26T21:26:35.285Z,2.94
2023-02-26T21:29:02.793Z,2.88
2023-02-26T21:31:30.505Z,3.05
2023-02-26T21:33:58.591Z,3.02
2023-02-26T21:36:26.994Z,3.08
2023-02-26T21:38:54.410Z,3.26
2023-02-26T21:41:22.145Z,2.82
2023-02-26T21:43:49.719Z,2.83
2023-02-26T21:46:17.332Z,2.89
2023-02-26T21:48:46.188Z,3.04
2023-02-26T21:51:15.477Z,2.90
2023-02-26T21:53:43.133Z,3.07
2023-02-26T21:56:10.577Z,3.14
2023-02-26T21:58:38.053Z,3.25
2023-02-26T22:01:05.688Z,3.05
2023-02-26T22:03:33.126Z,3.00
2023-02-26T22:06:04.916Z,3.03
2023-02-26T22:08:32.848Z,3.06
2023-02-26T22:11:00.279Z,3.00
2023-02-26T22:13:28.081Z,2.87
2023-02-26T22:15:55.519Z,2.80
2023-02-26T22:18:22.976Z,2.79
2023-02-26T22:20:50.511Z,2.71
2023-02-26T22:23:17.909Z,2.72
2023-02-26T22:25:45.935Z,2.68
2023-02-26T22:28:13.530Z,2.76
2023-02-26T22:30:41.059Z,2.70
2023-02-26T22:33:08.714Z,2.76
2023-02-26T22:35:36.155Z,2.89
2023-02-26T22:38:03.949Z,2.97
2023-02-26T22:40:31.345Z,2.86
2023-02-26T22:42:58.952Z,2.89
2023-02-26T22:45:26.440Z,2.83
2023-02-26T22:47:53.882Z,2.91
2023-02-26T22:50:21.415Z,2.95
2023-02-26T22:52:49.327Z,2.90
2023-02-26T22:55:17.009Z,3.00
2023-02-26T22:57:44.611Z,3.04
2023-02-26T23:00:15.061Z,3.03
2023-02-26T23:02:43.308Z,3.17
2023-02-26T23:05:10.751Z,3.26
2023-02-26T23:07:38.882Z,3.29
2023-02-26T23:10:07.289Z,3.05
2023-02-26T23:12:34.839Z,3.21
2023-02-26T23:15:03.220Z,3.02
2023-02-26T23:17:30.763Z,2.92
2023-02-26T23:19:58.304Z,3.29
2023-02-26T23:22:26.021Z,3.21
2023-02-26T23:24:53.587Z,3.10
2023-02-26T23:27:21.078Z,3.12
2023-02-26T23:29:48.600Z,3.03
2023-02-26T23:32:16.268Z,3.00
2023-02-26T23:34:43.778Z,2.93
2023-02-26T23:37:11.225Z,2.88
2023-02-26T23:39:38.657Z,3.08
2023-02-26T23:42:06.144Z,3.29
2023-02-26T23:44:33.717Z,3.08
2023-02-26T23:47:01.110Z,3.15
2023-02-26T23:49:28.635Z,3.21
2023-02-26T23:51:56.571Z,3.28
2023-02-26T23:54:23.982Z,3.17
2023-02-26T23:56:51.471Z,3.26
2023-02-26T23:59:18.996Z,3.02
